createdAt,value
2019-03-27T00:02:10.268Z,99396.16
2019-03-27T00:04:42.803Z,99394.13
2019-03-27T00:07:15.315Z,99392.44
2019-03-27T00:09:47.833Z,99396.54
2019-03-27T00:12:20.336Z,99396.03
2019-03-27T00:14:52.854Z,99394.52
2019-03-27T00:17:25.367Z,99392.81
2019-03-27T00:19:57.929Z,99387.87
2019-03-27T00:22:30.424Z,99385.79
2019-03-27T00:25:02.995Z,99376.91
2019-03-27T00:27:35.494Z,99382.70
2019-03-27T00:30:08.809Z,99375.17
2019-03-27T00:32:41.306Z,99383.83
2019-03-27T00:35:13.859Z,99380.41
2019-03-27T00:37:46.345Z,99382.38
2019-03-27T00:40:18.853Z,99378.59
2019-03-27T00:42:51.343Z,99376.34
2019-03-27T00:45:26.832Z,99372.11
2019-03-27T00:47:58.240Z,99375.67
2019-03-27T00:50:30.747Z,99377.19
2019-03-27T00:53:03.357Z,99375.37
2019-03-27T00:55:35.890Z,99372.23
2019-03-27T00:58:08.399Z,99380.72
2019-03-27T01:01:13.680Z,99378.27
2019-03-27T01:03:46.152Z,99376.73
2019-03-27T01:06:18.665Z,99376.52
2019-03-27T01:08:51.185Z,99372.84
2019-03-27T01:11:23.699Z,99377.80
2019-03-27T01:13:56.186Z,99369.76
2019-03-27T01:16:28.706Z,99373.48
2019-03-27T01:19:01.237Z,99374.03
2019-03-27T01:21:33.767Z,99371.42
2019-03-27T01:24:06.306Z,99365.67
2019-03-27T01:26:38.799Z,99369.39
2019-03-27T01:29:11.299Z,99368.80
2019-03-27T01:31:43.809Z,99364.11
2019-03-27T01:34:16.317Z,99363.89
2019-03-27T01:36:48.848Z,99357.60
2019-03-27T01:39:21.407Z,99355.06
2019-03-27T01:41:53.931Z,99349.86
2019-03-27T01:44:26.422Z,99353.58
2019-03-27T01:46:58.939Z,99352.31
2019-03-27T01:49:31.415Z,99351.42
2019-03-27T01:52:04.047Z,99352.69
2019-03-27T01:54:36.525Z,99357.00
2019-03-27T01:57:09.041Z,99350.36
2019-03-27T01:59:41.510Z,99350.65
2019-03-27T02:02:14.038Z,99350.52
2019-03-27T02:04:46.564Z,99347.73
2019-03-27T02:07:19.101Z,99346.42
2019-03-27T02:09:51.606Z,99347.02
2019-03-27T02:12:24.161Z,99354.20
2019-03-27T02:14:56.723Z,99354.95
2019-03-27T02:17:29.236Z,99356.18
2019-03-27T02:20:01.745Z,99352.93
2019-03-27T02:22:34.224Z,99351.88
2019-03-27T02:25:06.854Z,99359.27
2019-03-27T02:27:39.337Z,99351.88
2019-03-27T02:30:11.884Z,99360.54
2019-03-27T02:32:44.362Z,99353.69
2019-03-27T02:35:16.862Z,99356.22
2019-03-27T02:37:49.332Z,99358.34
2019-03-27T02:40:21.886Z,99359.02
2019-03-27T02:42:54.442Z,99355.89
2019-03-27T02:45:26.974Z,99357.46
2019-03-27T02:47:59.439Z,99362.84
2019-03-27T02:50:31.948Z,99358.27
2019-03-27T02:53:04.481Z,99358.36
2019-03-27T02:55:36.974Z,99367.63
2019-03-27T02:58:09.456Z,99356.80
2019-03-27T03:00:41.943Z,99360.90
2019-03-27T03:03:14.529Z,99363.23
2019-03-27T03:05:47.053Z,99367.25
2019-03-27T03:08:19.546Z,99367.45
2019-03-27T03:10:52.040Z,99363.44
2019-03-27T03:13:24.518Z,99360.01
2019-03-27T03:15:57.018Z,99360.69
2019-03-27T03:18:29.533Z,99359.93
2019-03-27T03:21:02.041Z,99363.44
2019-03-27T03:23:34.680Z,99359.12
2019-03-27T03:26:07.160Z,99352.23
2019-03-27T03:28:39.648Z,99357.17
2019-03-27T03:31:12.138Z,99355.98
2019-03-27T03:33:44.616Z,99358.05
2019-03-27T03:36:17.124Z,99360.87
2019-03-27T03:38:49.614Z,99365.16
2019-03-27T03:41:22.187Z,99362.38
2019-03-27T03:43:54.658Z,99359.11
2019-03-27T03:46:27.179Z,99367.83
2019-03-27T03:48:59.645Z,99371.54
2019-03-27T03:51:32.185Z,99370.14
2019-03-27T03:54:05.028Z,99372.09
2019-03-27T03:56:39.535Z,99379.27
2019-03-27T03:59:12.706Z,99376.83
2019-03-27T04:01:45.205Z,99373.34
2019-03-27T04:04:18.388Z,99372.62
2019-03-27T04:06:50.897Z,99366.03
2019-03-27T04:09:23.387Z,99370.69
2019-03-27T04:11:55.907Z,99371.20
2019-03-27T04:14:28.479Z,99367.94
2019-03-27T04:17:16.112Z,99369.50
2019-03-27T04:19:35.403Z,99368.23
2019-03-27T04:22:07.927Z,99375.37
2019-03-27T04:24:40.405Z,99380.34
2019-03-27T04:27:12.903Z,99375.73
2019-03-27T04:29:45.402Z,99379.33
2019-03-27T04:32:17.931Z,99370.88
2019-03-27T04:34:50.408Z,99368.55
2019-03-27T04:37:22.934Z,99375.73
2019-03-27T04:39:55.398Z,99372.58
2019-03-27T04:42:27.964Z,99368.67
2019-03-27T04:45:00.477Z,99373.89
2019-03-27T04:47:32.990Z,99368.02
2019-03-27T04:50:08.643Z,99374.36
2019-03-27T04:52:41.208Z,99380.39
2019-03-27T04:55:13.702Z,99374.22
2019-03-27T04:57:46.183Z,99373.40
2019-03-27T05:00:18.799Z,99374.88
2019-03-27T05:02:51.254Z,99383.75
2019-03-27T05:05:23.773Z,99389.27
2019-03-27T05:07:56.278Z,99391.20
2019-03-27T05:10:28.802Z,99395.07
2019-03-27T05:13:01.289Z,99396.68
2019-03-27T05:15:33.811Z,99398.22
2019-03-27T05:18:06.318Z,99396.38
2019-03-27T05:20:38.894Z,99400.45
2019-03-27T05:23:11.401Z,99407.78
2019-03-27T05:25:43.938Z,99412.27
2019-03-27T05:28:16.428Z,99406.83
2019-03-27T05:30:48.958Z,99411.52
2019-03-27T05:33:21.449Z,99413.16
2019-03-27T05:35:53.998Z,99410.45
2019-03-27T05:38:26.495Z,99413.06
2019-03-27T05:40:59.020Z,99409.09
2019-03-27T05:43:31.533Z,99412.75
2019-03-27T05:46:04.040Z,99423.34
2019-03-27T05:48:36.537Z,99426.91
2019-03-27T05:51:09.065Z,99428.04
2019-03-27T05:53:41.624Z,99431.02
2019-03-27T05:56:14.155Z,99434.11
2019-03-27T05:58:46.650Z,99439.25
2019-03-27T06:01:19.158Z,99437.67
2019-03-27T06:03:51.761Z,99439.17
2019-03-27T06:06:24.326Z,99438.59
2019-03-27T06:08:56.813Z,99445.83
2019-03-27T06:18:53.716Z,99446.20
2019-03-27T06:21:26.217Z,99449.63
2019-03-27T06:23:58.698Z,99450.22
2019-03-27T06:26:31.204Z,99453.20
2019-03-27T06:29:03.691Z,99455.43
2019-03-27T06:31:36.207Z,99456.25
2019-03-27T06:34:08.701Z,99453.06
2019-03-27T06:36:41.229Z,99450.22
2019-03-27T06:39:13.712Z,99451.48
2019-03-27T06:41:46.213Z,99452.98
2019-03-27T06:44:18.738Z,99455.83
2019-03-27T06:46:51.274Z,99456.86
2019-03-27T06:49:23.803Z,99454.41
2019-03-27T06:51:56.305Z,99463.20
2019-03-27T06:54:28.834Z,99459.77
2019-03-27T06:57:01.469Z,99460.20
2019-03-27T06:59:33.955Z,99458.52
2019-03-27T07:02:06.491Z,99458.59
2019-03-27T07:04:38.995Z,99455.72
2019-03-27T07:07:11.566Z,99457.30
2019-03-27T07:09:44.934Z,99459.97
2019-03-27T07:12:21.452Z,99468.73
2019-03-27T07:14:51.879Z,99466.48
2019-03-27T07:17:24.346Z,99466.27
2019-03-27T07:19:56.858Z,99463.19
2019-03-27T07:22:29.421Z,99471.48
2019-03-27T07:25:01.936Z,99471.41
2019-03-27T07:27:34.457Z,99475.00
2019-03-27T07:30:07.160Z,99474.78
2019-03-27T07:32:39.637Z,99478.98
2019-03-27T07:35:12.171Z,99478.98
2019-03-27T07:37:44.630Z,99477.63
2019-03-27T07:40:17.170Z,99482.84
2019-03-27T07:42:49.645Z,99476.27
2019-03-27T07:45:22.137Z,99488.55
2019-03-27T07:47:54.662Z,99491.50
2019-03-27T07:50:27.190Z,99495.55
2019-03-27T07:52:59.688Z,99498.41
2019-03-27T07:55:32.214Z,99498.92
2019-03-27T07:58:04.722Z,99501.53
2019-03-27T08:00:37.239Z,99499.56
2019-03-27T08:03:09.759Z,99500.77
2019-03-27T08:05:42.305Z,99505.35
2019-03-27T08:08:14.815Z,99499.70
2019-03-27T08:10:47.374Z,99490.14
2019-03-27T08:13:19.917Z,99496.00
2019-03-27T08:15:52.445Z,99496.30
2019-03-27T08:18:24.962Z,99494.99
2019-03-27T08:20:57.478Z,99496.49
2019-03-27T08:23:29.969Z,99496.84
2019-03-27T08:26:02.924Z,99494.22
2019-03-27T08:28:35.400Z,99494.39
2019-03-27T08:31:08.042Z,99497.35
2019-03-27T08:33:40.536Z,99498.47
2019-03-27T08:36:13.038Z,99488.35
2019-03-27T08:38:45.544Z,99482.67
2019-03-27T08:41:18.055Z,99484.05
2019-03-27T08:43:50.543Z,99486.05
2019-03-27T08:46:23.077Z,99495.27
2019-03-27T08:48:55.575Z,99502.69
2019-03-27T08:51:28.102Z,99499.66
2019-03-27T08:54:00.635Z,99500.18
2019-03-27T08:56:33.165Z,99498.77
2019-03-27T08:59:05.684Z,99503.53
2019-03-27T09:01:38.198Z,99506.30
2019-03-27T09:04:10.700Z,99509.80
2019-03-27T09:06:43.217Z,99505.56
2019-03-27T09:09:15.700Z,99504.14
2019-03-27T09:11:48.239Z,99507.32
2019-03-27T09:14:20.741Z,99518.19
2019-03-27T09:16:53.309Z,99510.48
2019-03-27T09:19:35.710Z,99504.17
2019-03-27T09:22:00.237Z,99511.74
2019-03-27T09:24:32.727Z,99498.72
2019-03-27T09:27:05.310Z,99496.06
2019-03-27T09:29:37.817Z,99489.98
2019-03-27T09:32:10.361Z,99489.98
2019-03-27T09:34:42.840Z,99490.22
2019-03-27T09:37:15.374Z,99493.45
2019-03-27T09:39:47.854Z,99494.95
2019-03-27T09:42:20.390Z,99500.89
2019-03-27T09:44:52.929Z,99495.11
2019-03-27T09:47:25.429Z,99485.36
2019-03-27T09:49:57.976Z,99494.95
2019-03-27T09:52:30.502Z,99478.30
2019-03-27T09:55:03.326Z,99478.30
2019-03-27T09:57:35.868Z,99488.67
2019-03-27T10:00:08.605Z,99495.22
2019-03-27T10:02:41.121Z,99491.27
2019-03-27T10:05:13.647Z,99489.50
2019-03-27T10:07:46.227Z,99490.59
2019-03-27T10:10:18.803Z,99475.20
2019-03-27T10:12:51.321Z,99475.69
2019-03-27T10:15:23.839Z,99478.89
2019-03-27T10:17:56.338Z,99471.95
2019-03-27T10:20:28.854Z,99473.03
2019-03-27T10:23:01.350Z,99471.78
2019-03-27T10:25:33.898Z,99472.23
2019-03-27T10:28:06.395Z,99483.48
2019-03-27T10:30:38.926Z,99486.25
2019-03-27T10:33:11.428Z,99484.97
2019-03-27T10:35:43.942Z,99476.58
2019-03-27T10:38:16.458Z,99476.61
2019-03-27T10:40:48.970Z,99475.95
2019-03-27T10:43:21.475Z,99481.14
2019-03-27T10:45:54.014Z,99477.23
2019-03-27T10:48:26.497Z,99478.84
2019-03-27T10:50:59.009Z,99484.77
2019-03-27T10:53:31.544Z,99484.77
2019-03-27T10:56:04.049Z,99480.25
2019-03-27T10:58:36.576Z,99477.30
2019-03-27T11:01:09.119Z,99477.59
2019-03-27T11:03:41.605Z,99481.80
2019-03-27T11:06:14.202Z,99475.16
2019-03-27T11:08:46.712Z,99482.92
2019-03-27T11:11:19.264Z,99476.94
2019-03-27T11:13:51.782Z,99479.84
2019-03-27T11:16:24.335Z,99476.03
2019-03-27T11:18:56.850Z,99481.62
2019-03-27T11:21:29.452Z,99475.83
2019-03-27T11:24:01.989Z,99476.58
2019-03-27T11:26:34.512Z,99473.67
2019-03-27T11:29:07.011Z,99479.79
2019-03-27T11:31:39.532Z,99473.45
2019-03-27T11:34:12.029Z,99473.02
2019-03-27T11:36:44.544Z,99476.88
2019-03-27T11:39:17.041Z,99480.41
2019-03-27T11:41:49.536Z,99470.46
2019-03-27T11:44:22.004Z,99466.48
2019-03-27T11:46:54.536Z,99470.00
2019-03-27T11:49:27.027Z,99466.58
2019-03-27T11:51:59.542Z,99470.28
2019-03-27T11:54:32.047Z,99458.91
2019-03-27T11:57:04.637Z,99463.62
2019-03-27T11:59:37.109Z,99455.76
2019-03-27T12:02:09.633Z,99459.51
2019-03-27T12:04:42.149Z,99458.27
2019-03-27T12:07:14.714Z,99462.41
2019-03-27T12:09:47.220Z,99459.61
2019-03-27T12:12:19.780Z,99468.28
2019-03-27T12:14:52.303Z,99465.47
2019-03-27T12:17:24.837Z,99466.48
2019-03-27T12:19:57.371Z,99473.45
2019-03-27T12:22:29.912Z,99463.23
2019-03-27T12:25:02.428Z,99462.38
2019-03-27T12:27:34.946Z,99456.72
2019-03-27T12:30:07.743Z,99458.37
2019-03-27T12:32:40.240Z,99455.27
2019-03-27T12:35:12.794Z,99449.52
2019-03-27T12:37:45.297Z,99450.15
2019-03-27T12:40:17.816Z,99445.31
2019-03-27T12:42:50.348Z,99441.59
2019-03-27T12:45:22.853Z,99434.15
2019-03-27T12:47:55.344Z,99424.63
2019-03-27T12:50:27.888Z,99427.42
2019-03-27T12:53:00.425Z,99426.17
2019-03-27T12:55:33.011Z,99425.12
2019-03-27T12:58:05.507Z,99435.30
2019-03-27T13:00:38.016Z,99433.70
2019-03-27T13:03:10.535Z,99428.05
2019-03-27T13:05:43.040Z,99432.62
2019-03-27T13:08:15.523Z,99436.91
2019-03-27T13:10:48.074Z,99431.70
2019-03-27T13:13:20.607Z,99438.69
2019-03-27T13:15:53.141Z,99439.72
2019-03-27T13:18:25.650Z,99434.27
2019-03-27T13:20:58.194Z,99434.91
2019-03-27T13:23:30.723Z,99425.83
2019-03-27T13:26:03.230Z,99422.10
2019-03-27T13:28:48.210Z,99426.23
2019-03-27T13:31:10.194Z,99426.80
2019-03-27T13:33:42.689Z,99423.52
2019-03-27T13:36:15.232Z,99422.59
2019-03-27T13:38:47.778Z,99427.07
2019-03-27T13:41:20.327Z,99418.17
2019-03-27T13:43:52.834Z,99423.45
2019-03-27T13:46:25.352Z,99412.78
2019-03-27T13:48:57.845Z,99411.00
2019-03-27T13:51:40.494Z,99416.95
2019-03-27T13:54:04.791Z,99413.17
2019-03-27T13:56:37.330Z,99411.19
2019-03-27T13:59:09.862Z,99412.31
2019-03-27T14:01:42.401Z,99403.11
2019-03-27T14:04:14.899Z,99394.54
2019-03-27T14:06:47.464Z,99399.16
2019-03-27T14:09:19.989Z,99395.02
2019-03-27T14:11:52.523Z,99398.93
2019-03-27T14:14:25.016Z,99398.23
2019-03-27T14:16:57.557Z,99391.47
2019-03-27T14:19:30.037Z,99393.70
2019-03-27T14:22:02.650Z,99393.70
2019-03-27T14:24:35.155Z,99398.73
2019-03-27T14:27:07.685Z,99387.59
2019-03-27T14:29:40.166Z,99386.17
2019-03-27T14:32:12.722Z,99390.14
2019-03-27T14:34:45.269Z,99383.41
2019-03-27T14:37:17.811Z,99396.92
2019-03-27T14:39:50.439Z,99392.83
2019-03-27T14:42:23.075Z,99399.47
2019-03-27T14:44:55.561Z,99399.73
2019-03-27T14:47:28.143Z,99400.34
2019-03-27T14:50:00.724Z,99400.30
2019-03-27T14:52:33.241Z,99398.40
2019-03-27T14:55:07.677Z,99401.45
2019-03-27T14:57:40.215Z,99398.70
2019-03-27T15:00:12.862Z,99402.16
2019-03-27T15:02:45.385Z,99409.41
2019-03-27T15:05:18.049Z,99403.97
2019-03-27T15:07:50.542Z,99413.64
2019-03-27T15:10:23.101Z,99414.92
2019-03-27T15:12:55.626Z,99418.51
2019-03-27T15:15:28.209Z,99412.59
2019-03-27T15:18:00.750Z,99407.28
2019-03-27T15:20:33.290Z,99418.39
2019-03-27T15:23:05.783Z,99420.24
2019-03-27T15:25:38.327Z,99413.16
2019-03-27T15:28:10.880Z,99411.44
2019-03-27T15:30:43.406Z,99410.60
2019-03-27T15:33:15.970Z,99413.42
2019-03-27T15:35:48.511Z,99414.83
2019-03-27T15:38:21.016Z,99409.98
2019-03-27T15:40:53.565Z,99408.52
2019-03-27T15:43:26.103Z,99410.20
2019-03-27T15:45:58.668Z,99411.63
2019-03-27T15:48:31.243Z,99413.34
2019-03-27T15:51:03.760Z,99407.69
2019-03-27T15:53:36.286Z,99410.83
2019-03-27T15:56:08.838Z,99410.43
2019-03-27T15:58:41.362Z,99410.66
2019-03-27T16:01:13.899Z,99414.92
2019-03-27T16:03:46.403Z,99414.02
2019-03-27T16:06:18.948Z,99411.20
2019-03-27T16:08:51.439Z,99408.37
2019-03-27T16:11:24.024Z,99408.87
2019-03-27T16:13:56.550Z,99412.35
2019-03-27T16:16:29.085Z,99409.06
2019-03-27T16:19:01.594Z,99409.16
2019-03-27T16:21:37.457Z,99414.91
2019-03-27T16:24:08.740Z,99414.84
2019-03-27T16:26:41.367Z,99407.16
2019-03-27T16:29:13.918Z,99409.61
2019-03-27T16:31:46.451Z,99410.57
2019-03-27T16:34:18.982Z,99411.27
2019-03-27T16:36:54.155Z,99414.55
2019-03-27T16:39:25.971Z,99414.84
2019-03-27T16:41:58.522Z,99418.83
2019-03-27T16:44:31.054Z,99416.20
2019-03-27T16:47:03.633Z,99419.75
2019-03-27T16:49:36.170Z,99420.89
2019-03-27T16:52:08.665Z,99426.05
2019-03-27T16:54:41.278Z,99424.24
2019-03-27T16:57:13.807Z,99431.50
2019-03-27T16:59:46.325Z,99437.06
2019-03-27T17:02:18.901Z,99437.45
2019-03-27T17:04:51.496Z,99434.00
2019-03-27T17:07:24.010Z,99439.28
2019-03-27T17:09:56.591Z,99436.48
2019-03-27T17:12:31.488Z,99441.08
2019-03-27T17:15:04.227Z,99438.13
2019-03-27T17:17:36.897Z,99449.55
2019-03-27T17:20:10.011Z,99458.92
2019-03-27T17:22:42.560Z,99461.41
2019-03-27T17:25:15.130Z,99464.22
2019-03-27T17:27:47.637Z,99466.55
2019-03-27T17:30:20.333Z,99464.14
2019-03-27T17:32:52.895Z,99463.89
2019-03-27T17:35:25.505Z,99470.94
2019-03-27T17:37:58.071Z,99472.65
2019-03-27T17:40:30.678Z,99477.03
2019-03-27T17:43:03.214Z,99474.86
2019-03-27T17:45:35.810Z,99475.90
2019-03-27T17:48:08.361Z,99477.69
2019-03-27T17:50:40.962Z,99479.50
2019-03-27T17:53:13.502Z,99488.20
2019-03-27T17:55:46.134Z,99486.83
2019-03-27T17:58:18.724Z,99486.05
2019-03-27T18:00:52.563Z,99484.13
2019-03-27T18:03:25.086Z,99491.55
2019-03-27T18:05:57.618Z,99488.49
2019-03-27T18:08:30.132Z,99488.63
2019-03-27T18:11:03.118Z,99497.47
2019-03-27T18:13:35.672Z,99497.47
2019-03-27T18:16:08.257Z,99498.73
2019-03-27T18:18:40.771Z,99499.75
2019-03-27T18:21:13.405Z,99501.12
2019-03-27T18:23:46.804Z,99503.66
2019-03-27T18:26:19.381Z,99508.34
2019-03-27T18:28:51.959Z,99505.42
2019-03-27T18:31:24.534Z,99510.88
2019-03-27T18:33:57.084Z,99522.73
2019-03-27T18:36:29.670Z,99525.00
2019-03-27T18:39:04.329Z,99528.19
2019-03-27T18:41:36.965Z,99524.56
2019-03-27T18:44:09.546Z,99526.32
2019-03-27T18:46:42.164Z,99535.19
2019-03-27T18:49:14.786Z,99539.60
2019-03-27T18:51:47.430Z,99543.23
2019-03-27T18:54:23.380Z,99541.11
2019-03-27T18:56:54.657Z,99541.52
2019-03-27T18:59:27.307Z,99553.88
2019-03-27T19:01:59.923Z,99552.28
2019-03-27T19:04:32.579Z,99548.90
2019-03-27T19:07:05.182Z,99559.44
2019-03-27T19:09:37.783Z,99559.16
2019-03-27T19:12:10.370Z,99565.65
2019-03-27T19:14:42.952Z,99579.36
2019-03-27T19:17:15.506Z,99575.38
2019-03-27T19:19:48.134Z,99581.76
2019-03-27T19:22:20.695Z,99580.02
2019-03-27T19:24:53.352Z,99583.33
2019-03-27T19:27:25.912Z,99589.31
2019-03-27T19:29:58.517Z,99588.19
2019-03-27T19:32:31.062Z,99590.73
2019-03-27T19:35:04.044Z,99592.23
2019-03-27T19:37:36.659Z,99591.52
2019-03-27T19:40:09.419Z,99594.76
2019-03-27T19:42:42.034Z,99599.91
2019-03-27T19:45:14.729Z,99593.81
2019-03-27T19:47:47.290Z,99607.13
2019-03-27T19:50:19.891Z,99594.25
2019-03-27T19:52:52.492Z,99599.43
2019-03-27T19:55:25.174Z,99597.02
2019-03-27T19:57:57.727Z,99600.25
2019-03-27T20:00:30.317Z,99604.82
2019-03-27T20:03:02.861Z,99602.36
2019-03-27T20:05:35.470Z,99603.25
2019-03-27T20:08:08.154Z,99609.44
2019-03-27T20:10:40.806Z,99609.82
2019-03-27T20:13:13.440Z,99602.70
2019-03-27T20:15:45.974Z,99614.35
2019-03-27T20:18:18.543Z,99610.58
2019-03-27T20:20:51.276Z,99615.53
2019-03-27T20:23:23.841Z,99614.68
2019-03-27T20:25:56.468Z,99614.83
2019-03-27T20:28:29.059Z,99617.78
2019-03-27T20:31:01.678Z,99616.97
2019-03-27T20:33:34.237Z,99613.61
2019-03-27T20:36:06.807Z,99607.02
2019-03-27T20:38:39.524Z,99615.50
2019-03-27T20:41:12.121Z,99609.63
2019-03-27T20:43:44.773Z,99610.80
2019-03-27T20:46:24.916Z,99614.03
2019-03-27T20:48:51.917Z,99615.30
2019-03-27T20:51:24.492Z,99612.48
2019-03-27T20:53:57.134Z,99616.20
2019-03-27T20:56:29.810Z,99617.54
2019-03-27T20:59:02.366Z,99617.80
2019-03-27T21:01:34.966Z,99624.91
2019-03-27T21:04:07.616Z,99617.48
2019-03-27T21:06:40.199Z,99624.33
2019-03-27T21:09:12.722Z,99623.52
2019-03-27T21:11:45.336Z,99619.25
2019-03-27T21:14:17.881Z,99627.45
2019-03-27T21:16:50.412Z,99625.88
2019-03-27T21:19:22.991Z,99636.02
2019-03-27T21:21:55.600Z,99628.84
2019-03-27T21:24:28.127Z,99624.08
2019-03-27T21:27:00.755Z,99629.97
2019-03-27T21:29:33.305Z,99630.02
2019-03-27T21:32:05.860Z,99625.61
2019-03-27T21:34:38.373Z,99628.31
2019-03-27T21:37:10.971Z,99635.16
2019-03-27T21:39:43.604Z,99630.41
2019-03-27T21:42:16.148Z,99638.26
2019-03-27T21:44:48.690Z,99638.13
2019-03-27T21:47:21.590Z,99634.42
2019-03-27T21:49:54.173Z,99634.53
2019-03-27T21:52:26.723Z,99637.63
2019-03-27T21:54:59.338Z,99642.70
2019-03-27T21:57:32.328Z,99642.13
2019-03-27T22:00:05.403Z,99644.30
2019-03-27T22:02:38.133Z,99645.56
2019-03-27T22:05:10.682Z,99642.37
2019-03-27T22:07:43.547Z,99646.22
2019-03-27T22:10:16.176Z,99650.63
2019-03-27T22:12:48.740Z,99649.03
2019-03-27T22:15:21.366Z,99652.13
2019-03-27T22:17:53.967Z,99648.00
2019-03-27T22:20:26.630Z,99650.72
2019-03-27T22:22:59.166Z,99654.23
2019-03-27T22:25:36.178Z,99643.91
2019-03-27T22:28:06.124Z,99651.70
2019-03-27T22:30:38.707Z,99651.18
2019-03-27T22:33:11.227Z,99651.03
2019-03-27T22:35:43.756Z,99655.99
2019-03-27T22:38:16.310Z,99658.75
2019-03-27T22:40:48.863Z,99654.77
2019-03-27T22:43:21.405Z,99660.46
2019-03-27T22:45:53.934Z,99657.11
2019-03-27T22:48:26.429Z,99659.30
2019-03-27T22:50:59.013Z,99657.85
2019-03-27T22:53:31.519Z,99659.70
2019-03-27T22:56:04.069Z,99661.93
2019-03-27T22:58:36.619Z,99664.86
2019-03-27T23:01:09.345Z,99665.22
2019-03-27T23:03:42.159Z,99664.89
2019-03-27T23:06:14.976Z,99667.41
2019-03-27T23:08:47.790Z,99660.91
2019-03-27T23:11:20.571Z,99657.17
2019-03-27T23:13:53.338Z,99655.75
2019-03-27T23:16:26.140Z,99662.59
2019-03-27T23:18:58.909Z,99659.22
2019-03-27T23:21:31.714Z,99656.91
2019-03-27T23:24:04.627Z,99657.45
2019-03-27T23:26:37.393Z,99659.04
2019-03-27T23:29:10.182Z,99659.27
2019-03-27T23:31:43.063Z,99659.98
2019-03-27T23:34:15.829Z,99658.92
2019-03-27T23:36:48.636Z,99660.14
2019-03-27T23:39:21.434Z,99655.14
2019-03-27T23:41:54.228Z,99657.48
2019-03-27T23:44:26.988Z,99655.31
2019-03-27T23:46:59.788Z,99658.93
2019-03-27T23:49:32.556Z,99655.50
2019-03-27T23:52:05.358Z,99661.52
2019-03-27T23:54:38.185Z,99660.61
2019-03-27T23:57:10.982Z,99664.80
2019-03-27T23:59:43.753Z,99664.23
